Time;durP1;ratioP1;P1;durP2;ratioP2;P2;SDS_P1;SDS_P2;PMS_P1;PMS_P2;Temp;Humidity;BMP_temperature;BMP_pressure;BME280_temperature;BME280_humidity;BME280_pressure;Samples;Min_cycle;Max_cycle;Signal;HPM_P1;HPM_P2
2022/05/19 14:12:36;;;;;;;1.80;1.00;;;25.50;53.70;;;28.21;40.10;101452.22;5130693;27;20560;-45
2022/05/19 14:15:07;;;;;;;3.27;1.37;;;25.40;53.70;;;28.31;40.25;101432.44;5067462;28;20315;-44
2022/05/19 14:17:43;;;;;;;1.23;1.10;;;25.50;53.80;;;28.37;40.21;101450.28;5037115;28;20597;-43
2022/05/19 14:20:17;;;;;;;1.77;1.20;;;25.50;53.80;;;28.40;40.08;101458.69;4998929;28;20204;-44
2022/05/19 14:22:44;;;;;;;1.60;1.07;;;25.50;53.80;;;28.45;40.03;101476.81;4923240;28;20217;-45
2022/05/19 14:25:12;;;;;;;0.90;0.90;;;25.50;53.80;;;28.49;40.31;101488.72;4910650;28;20726;-44
2022/05/19 14:27:40;;;;;;;1.40;1.00;;;25.60;53.80;;;28.50;40.20;101506.63;4824156;29;20206;-53
2022/05/19 14:33:06;;;;;;;1.10;0.80;;;25.60;53.80;;;28.54;39.91;101530.19;5153435;27;20536;-43
2022/05/19 14:35:50;;;;;;;1.60;1.00;;;25.60;53.80;;;28.51;40.04;101546.97;5094911;28;20222;-42
2022/05/19 14:38:35;;;;;;;1.57;0.80;;;25.60;53.80;;;28.56;39.89;101555.09;5076014;28;20196;-43
2022/05/19 14:43:59;;;;;;;1.57;0.77;;;25.60;53.70;;;28.56;40.18;101560.53;4943811;28;20202;-49
2022/05/19 14:46:25;;;;;;;2.40;1.20;;;25.60;53.70;;;28.58;39.86;101565.66;4939748;28;23989;-43
2022/05/19 14:49:06;;;;;;;0.93;0.93;;;25.60;53.70;;;28.56;39.78;101576.78;4895231;29;20355;-43
2022/05/19 14:55:30;;;;;;;3.23;1.50;;;25.60;53.70;;;28.51;40.31;101573.25;5148612;27;20544;-44
2022/05/19 14:57:59;;;;;;;4.67;1.70;;;25.70;53.70;;;28.53;39.81;101571.09;5097197;28;20556;-43
2022/05/19 15:00:31;;;;;;;5.00;1.37;;;25.70;53.70;;;28.55;39.83;101560.81;5079867;28;20197;-42
2022/05/19 15:02:58;;;;;;;5.30;2.07;;;25.70;53.70;;;28.58;39.90;101565.66;5022711;28;20281;-45
2022/05/19 15:05:25;;;;;;;5.23;2.40;;;25.60;53.60;;;28.59;40.01;101570.84;4991816;28;20219;-44
2022/05/19 15:07:55;;;;;;;4.87;2.77;;;25.60;53.60;;;28.58;39.87;101590.06;4950602;28;20192;-44
2022/05/19 15:10:27;;;;;;;5.17;3.10;;;25.70;53.70;;;28.60;40.06;101613.13;4847538;29;20215;-45
2022/05/19 15:15:50;;;;;;;6.43;3.37;;;25.70;53.70;;;28.64;39.90;101632.38;5138226;27;20608;-45
2022/05/19 15:18:18;;;;;;;6.97;3.77;;;25.70;53.70;;;28.66;39.80;101651.88;5098631;28;20204;-44
2022/05/19 15:20:46;;;;;;;9.63;3.13;;;25.70;53.70;;;28.68;40.17;101655.13;5106349;28;20196;-42
2022/05/19 15:23:16;;;;;;;11.90;5.13;;;25.70;53.70;;;28.68;39.89;101671.41;5059380;28;20639;-43
2022/05/19 15:25:43;;;;;;;8.87;4.27;;;25.70;53.70;;;28.69;39.89;101689.28;4969173;28;20225;-43
2022/05/19 15:28:13;;;;;;;12.80;4.97;;;25.70;53.70;;;28.69;39.66;101700.13;4886192;29;20226;-43
2022/05/19 15:30:40;;;;;;;11.87;5.33;;;25.70;53.70;;;28.70;40.00;101709.88;4824046;29;20202;-45
2022/05/19 15:36:03;;;;;;;9.20;4.27;;;25.80;53.80;;;28.69;39.86;101738.09;5135871;27;20560;-43
2022/05/19 15:38:30;;;;;;;10.07;4.00;;;25.70;53.70;;;28.69;40.05;101751.63;5111698;28;20226;-43
2022/05/19 15:40:57;;;;;;;8.30;4.23;;;25.70;53.70;;;28.69;39.96;101765.97;5081023;28;20227;-41
2022/05/19 15:43:23;;;;;;;7.00;3.63;;;25.70;53.70;;;28.68;39.89;101764.38;5023798;28;20202;-43
2022/05/19 15:45:51;;;;;;;9.07;4.30;;;25.80;53.90;;;28.70;40.14;101761.38;4953569;28;20229;-47
2022/05/19 15:48:18;;;;;;;7.50;4.40;;;25.80;54.00;;;28.70;40.12;101755.97;4904887;29;20202;-43
2022/05/19 15:50:47;;;;;;;5.70;4.20;;;25.80;54.00;;;28.69;40.09;101770.63;4737980;29;20829;-42
2022/05/19 15:55:54;;;;;;;5.93;3.43;;;25.80;54.00;;;28.69;40.52;101784.16;5144321;27;20579;-43
2022/05/19 15:58:24;;;;;;;7.67;3.10;;;25.80;54.20;;;28.68;39.91;101786.06;5083708;28;20200;-44
2022/05/19 16:00:52;;;;;;;5.77;2.83;;;25.80;54.30;;;28.68;40.59;101775.22;5052650;28;20197;-44
2022/05/19 16:03:28;;;;;;;5.27;2.77;;;25.80;54.30;;;28.67;40.14;101772.75;5027966;28;20273;-44
2022/05/19 16:05:55;;;;;;;4.93;2.73;;;25.80;54.40;;;28.66;40.70;101754.88;5012612;28;20250;-44
2022/05/19 16:08:22;;;;;;;6.23;3.20;;;25.80;55.10;;;28.65;41.15;101720.72;4960884;28;20524;-45
2022/05/19 16:10:49;;;;;;;6.70;3.63;;;25.80;54.50;;;28.65;40.45;101693.59;4962328;28;20247;-44
2022/05/19 16:16:07;;;;;;;6.03;3.50;;;25.80;54.50;;;28.66;40.84;101654.59;5125971;27;20906;-44
2022/05/19 16:18:36;;;;;;;6.43;3.10;;;25.80;54.60;;;28.67;40.63;101639.94;5089963;28;20205;-42
2022/05/19 16:21:17;;;;;;;8.47;3.50;;;25.80;54.60;;;28.64;41.10;101614.22;5039603;28;20670;-47
2022/05/19 16:23:46;;;;;;;7.70;4.07;;;25.80;54.60;;;28.66;40.59;101581.41;4985926;28;21063;-43
2022/05/19 16:26:13;;;;;;;9.90;4.37;;;25.80;54.60;;;28.67;40.85;101550.50;4980148;28;20555;-43
2022/05/19 16:28:40;;;;;;;5.27;3.07;;;25.80;54.60;;;28.67;40.50;101540.47;5001822;28;20638;-46
2022/05/19 16:31:07;;;;;;;7.90;3.53;;;25.80;54.70;;;28.69;40.76;101549.13;4975953;28;20221;-43
2022/05/19 16:33:34;;;;;;;6.93;3.50;;;25.80;54.70;;;28.70;40.58;101548.06;4954767;28;20220;-43
2022/05/19 16:36:01;;;;;;;8.67;3.90;;;25.80;54.70;;;28.70;40.54;101523.66;5004000;28;20764;-43
2022/05/19 16:41:04;;;;;;;5.30;3.10;;;25.80;54.70;;;28.74;40.77;101508.47;5169663;27;20614;-44
2022/05/19 16:43:31;;;;;;;6.47;3.50;;;25.80;55.40;;;28.76;40.65;101510.91;5119771;27;20207;-43
2022/05/19 16:45:59;;;;;;;6.20;3.13;;;25.80;54.80;;;28.76;40.98;101505.50;5109857;28;20257;-44
2022/05/19 16:48:25;;;;;;;8.93;3.70;;;25.80;54.80;;;28.76;40.75;101522.53;5111838;27;20260;-43
2022/05/19 16:50:53;;;;;;;7.73;3.80;;;25.80;54.80;;;28.77;40.66;101535.03;5115716;27;20201;-43
2022/05/19 16:53:20;;;;;;;7.13;3.80;;;25.90;55.00;;;28.77;41.14;101545.88;5060545;28;20198;-43
2022/05/19 16:58:34;;;;;;;7.70;3.80;;;25.90;55.00;;;28.77;40.94;101539.63;4641325;29;20218;-43
2022/05/19 17:01:16;;;;;;;5.20;3.07;;;25.90;55.00;;;28.79;41.03;101542.88;5169346;27;20633;-43
2022/05/19 17:03:45;;;;;;;4.27;2.80;;;25.90;55.00;;;28.81;40.84;101546.16;5138539;27;20264;-43
2022/05/19 17:06:11;;;;;;;4.83;2.80;;;25.90;55.10;;;28.81;40.71;101540.72;5143517;27;20294;-42
2022/05/19 17:08:40;;;;;;;5.87;3.40;;;25.90;55.10;;;28.83;40.82;101549.38;5147439;27;20205;-43
2022/05/19 17:11:06;;;;;;;4.30;2.57;;;25.90;55.10;;;28.83;40.89;101549.38;5129425;27;20211;-42
2022/05/19 17:13:34;;;;;;;4.13;2.47;;;25.90;55.10;;;28.86;41.17;101542.59;5126674;27;20263;-43
2022/05/19 17:16:01;;;;;;;5.93;3.10;;;26.00;55.20;;;28.85;40.76;101541.78;5063938;28;20220;-43
2022/05/19 17:18:29;;;;;;;4.83;2.60;;;26.00;55.20;;;28.87;41.16;101533.38;5015971;28;20203;-43
2022/05/19 17:21:09;;;;;;;5.77;2.60;;;26.00;55.20;;;28.86;40.83;101529.84;4935302;28;20333;-43
2022/05/19 17:26:09;;;;;;;7.33;3.07;;;26.00;55.20;;;28.89;41.24;101531.19;5133778;27;20900;-44
2022/05/19 17:28:36;;;;;;;4.37;2.63;;;26.00;55.30;;;28.90;41.17;101538.25;5096371;28;20702;-42
2022/05/19 17:31:03;;;;;;;5.23;2.43;;;26.00;55.30;;;28.90;41.08;101544.47;5104493;28;20855;-43
2022/05/19 17:33:31;;;;;;;5.00;2.57;;;26.00;55.30;;;28.92;40.86;101552.34;5093230;28;20218;-43
2022/05/19 17:36:01;;;;;;;2.80;2.03;;;26.00;55.30;;;28.90;41.21;101555.34;5092167;28;20232;-45
2022/05/19 17:38:36;;;;;;;4.00;2.57;;;26.00;55.40;;;28.92;40.91;101561.28;5101913;28;20283;-43
2022/05/19 17:41:03;;;;;;;4.33;2.80;;;26.00;55.30;;;28.92;41.17;101563.19;5088105;28;20236;-42
2022/05/19 17:46:11;;;;;;;4.30;2.23;;;26.00;55.40;;;28.92;40.96;101574.03;5152816;27;20562;-42
2022/05/19 17:48:38;;;;;;;3.17;1.93;;;26.00;55.40;;;28.93;40.94;101581.09;5075108;28;20679;-45
2022/05/19 17:51:09;;;;;;;5.63;2.67;;;26.00;55.40;;;28.94;41.24;101588.09;5109860;28;20199;-41
2022/05/19 17:53:36;;;;;;;4.67;2.57;;;26.00;55.40;;;28.95;40.94;101595.19;5115609;28;20339;-41
2022/05/19 17:56:04;;;;;;;4.60;2.00;;;26.00;56.10;;;28.95;41.23;101596.00;5073751;28;20221;-41
2022/05/19 17:58:32;;;;;;;4.73;2.60;;;26.10;55.50;;;28.96;41.31;101607.63;5086231;28;20207;-42
2022/05/19 18:01:01;;;;;;;4.83;2.33;;;26.10;55.50;;;28.96;41.14;101613.88;5042739;28;20665;-42
2022/05/19 18:06:20;;;;;;;3.83;2.50;;;26.10;55.50;;;28.96;41.43;101613.06;5148936;27;20652;-42
2022/05/19 18:08:47;;;;;;;2.70;2.10;;;26.10;55.60;;;28.94;41.45;101617.94;5128117;28;20295;-43
2022/05/19 18:11:13;;;;;;;2.97;2.20;;;26.10;55.60;;;28.96;41.32;101623.91;5127647;28;20223;-42
2022/05/19 18:13:41;;;;;;;3.13;2.13;;;26.10;55.60;;;28.96;41.35;101623.91;5127088;28;20281;-42
2022/05/19 18:18:54;;;;;;;3.20;1.70;;;26.10;55.70;;;28.95;41.48;101633.97;5019378;28;20202;-43
2022/05/19 18:21:21;;;;;;;2.20;1.50;;;26.10;55.60;;;28.96;41.36;101630.13;5072705;28;20242;-42
2022/05/19 18:23:48;;;;;;;2.67;1.90;;;26.10;55.70;;;28.96;41.66;101657.25;4951849;28;20284;-42
2022/05/19 18:26:30;;;;;;;2.17;1.57;;;26.10;55.70;;;28.96;41.36;101661.84;5151742;27;20578;-41
2022/05/19 18:28:58;;;;;;;3.47;1.90;;;26.10;55.70;;;28.96;41.59;101662.69;5108298;28;20655;-42
2022/05/19 18:31:25;;;;;;;2.00;1.80;;;26.10;55.70;;;28.97;41.06;101660.78;5108008;28;20207;-42
2022/05/19 18:33:52;;;;;;;2.10;1.70;;;26.10;55.70;;;28.96;41.31;101657.25;5111459;28;20211;-42
2022/05/19 18:36:19;;;;;;;3.03;1.90;;;26.10;55.80;;;28.98;41.13;101671.34;5107598;28;20314;-44
2022/05/19 18:38:48;;;;;;;2.23;1.57;;;26.10;55.80;;;28.98;41.30;101671.34;5095453;28;20204;-43
2022/05/19 18:47:01;;;;;;;3.57;2.00;;;26.10;55.80;;;28.91;41.82;101702.56;4840362;29;20209;-43
2022/05/19 18:52:05;;;;;;;1.60;1.50;;;26.00;55.70;;;28.93;41.68;101701.19;5169501;27;20634;-42
2022/05/19 18:54:32;;;;;;;3.70;1.77;;;26.10;55.90;;;28.93;41.76;101706.59;5147493;27;20828;-43
2022/05/19 18:56:59;;;;;;;3.20;1.80;;;26.00;55.90;;;28.93;41.49;101709.31;5132444;27;20206;-44
2022/05/19 18:59:25;;;;;;;2.60;2.00;;;26.10;56.00;;;28.95;41.89;101709.88;5136835;27;20204;-43
2022/05/19 19:01:52;;;;;;;2.20;1.50;;;26.10;56.00;;;28.95;41.35;101704.47;5105841;28;20200;-42
2022/05/19 19:04:19;;;;;;;2.40;1.60;;;26.10;56.10;;;28.96;41.62;101703.34;5004047;28;20649;-41
2022/05/19 19:06:46;;;;;;;3.20;1.90;;;26.10;56.10;;;28.96;41.62;101706.06;4992519;28;20310;-42
2022/05/19 19:12:01;;;;;;;2.63;1.50;;;26.10;56.10;;;28.96;41.60;101716.91;5169567;27;20630;-44
2022/05/19 19:14:27;;;;;;;3.07;1.47;;;26.10;56.10;;;28.97;41.68;101723.16;5148089;27;20212;-43
2022/05/19 19:16:54;;;;;;;1.90;1.27;;;26.10;56.10;;;28.98;41.76;101720.16;5132705;27;20206;-44
2022/05/19 19:19:21;;;;;;;1.90;1.13;;;26.10;56.10;;;28.97;41.73;101718.56;5148166;27;20629;-44
2022/05/19 19:21:51;;;;;;;1.67;1.47;;;26.10;56.10;;;28.98;41.67;101720.16;5117888;27;20200;-43
2022/05/19 19:24:19;;;;;;;2.40;1.60;;;26.10;56.10;;;28.98;41.77;101720.16;5063352;28;20212;-45
2022/05/19 19:26:46;;;;;;;1.27;1.00;;;26.10;56.20;;;28.98;41.52;101719.38;4960757;28;20745;-42
2022/05/19 19:29:17;;;;;;;2.77;1.30;;;26.10;56.20;;;28.96;41.52;101722.34;4929432;28;20201;-43
2022/05/19 19:31:58;;;;;;;1.40;1.17;;;26.10;56.20;;;28.94;41.95;101721.81;4871465;29;20351;-44
2022/05/19 19:37:03;;;;;;;1.53;1.00;;;26.10;56.20;;;28.95;41.59;101737.00;5170568;27;20533;-43
2022/05/19 19:39:30;;;;;;;1.23;1.07;;;26.10;56.20;;;28.94;41.83;101732.66;5148989;27;20229;-42
2022/05/19 19:41:58;;;;;;;1.57;1.10;;;26.00;56.10;;;28.94;41.70;101734.53;5139473;27;20197;-44
2022/05/19 19:44:25;;;;;;;1.47;1.10;;;26.10;56.20;;;28.92;41.81;101726.69;5147037;27;20198;-44
2022/05/19 19:46:52;;;;;;;1.37;1.10;;;26.10;56.20;;;28.90;41.73;101728.88;5081556;28;20700;-42
2022/05/19 19:49:19;;;;;;;1.30;1.00;;;26.00;56.20;;;28.92;41.60;101721.25;5069169;28;20223;-43
2022/05/19 19:52:00;;;;;;;1.30;0.90;;;26.00;56.20;;;28.90;41.66;101718.03;5048761;28;20210;-44
2022/05/19 19:54:31;;;;;;;1.30;1.20;;;26.00;56.20;;;28.88;41.70;101717.47;4937503;29;20209;-43
2022/05/19 19:57:15;;;;;;;0.90;0.90;;;26.00;56.20;;;28.86;41.84;101716.91;5170260;27;20541;-44
2022/05/19 19:59:42;;;;;;;0.80;0.80;;;26.00;56.20;;;28.86;41.85;101716.91;5146611;27;20198;-43
2022/05/19 20:02:09;;;;;;;1.47;1.13;;;26.00;56.20;;;28.85;41.77;101715.31;5145703;27;20583;-44
2022/05/19 20:04:36;;;;;;;1.20;1.00;;;26.00;56.20;;;28.85;41.74;101718.03;5111672;28;20187;-42
2022/05/19 20:07:04;;;;;;;1.70;1.27;;;26.00;56.30;;;28.84;41.94;101721.81;5087486;28;20200;-45
2022/05/19 20:09:32;;;;;;;1.40;1.30;;;26.00;56.30;;;28.85;41.66;101726.16;5089593;28;20674;-43
2022/05/19 20:11:59;;;;;;;1.27;0.97;;;26.00;56.30;;;28.83;41.89;101728.31;5013880;28;20680;-42
2022/05/19 20:14:27;;;;;;;1.80;1.37;;;25.90;56.20;;;28.85;41.82;101726.16;4952330;28;20208;-45
2022/05/19 20:16:53;;;;;;;1.30;1.10;;;25.90;56.20;;;28.81;41.83;101723.16;4749713;29;20234;-43
2022/05/19 20:21:58;;;;;;;0.93;0.70;;;25.90;56.20;;;28.81;41.76;101730.50;5170352;27;20637;-44
2022/05/19 20:24:26;;;;;;;1.97;1.20;;;25.90;56.30;;;28.81;42.06;101735.94;5129854;27;20657;-42
2022/05/19 20:26:54;;;;;;;1.43;1.20;;;25.90;56.30;;;28.79;41.81;101738.88;5142687;27;20638;-41
2022/05/19 20:29:21;;;;;;;1.50;1.40;;;25.90;56.30;;;28.80;41.78;101745.13;5164903;27;20193;-44
2022/05/19 20:31:47;;;;;;;1.47;1.30;;;25.90;56.30;;;28.79;41.94;101751.63;5159525;27;20198;-44
2022/05/19 20:34:17;;;;;;;1.53;1.00;;;25.90;56.30;;;28.79;41.94;101754.34;5154451;27;20257;-44
2022/05/19 20:36:43;;;;;;;1.00;0.87;;;25.90;56.30;;;28.79;41.87;101748.91;5066191;28;20545;-44
2022/05/19 20:39:11;;;;;;;1.40;0.93;;;25.90;56.40;;;28.77;41.99;101756.50;5020684;28;20201;-43
2022/05/19 20:41:38;;;;;;;1.20;1.10;;;25.90;56.30;;;28.77;41.91;101760.03;5039121;28;20228;-43
2022/05/19 20:46:43;;;;;;;1.30;1.20;;;25.90;56.30;;;28.76;41.79;101760.31;5149641;27;20562;-43
2022/05/19 20:49:11;;;;;;;1.20;0.90;;;25.80;56.30;;;28.76;42.08;101760.31;5128635;28;20202;-43
2022/05/19 20:51:39;;;;;;;0.90;0.90;;;25.80;56.30;;;28.74;41.79;101771.41;5128054;28;20191;-43
2022/05/19 20:54:06;;;;;;;1.53;1.00;;;25.80;56.30;;;28.74;42.06;101776.03;5127504;28;20270;-43
2022/05/19 20:56:33;;;;;;;1.33;0.90;;;25.80;56.30;;;28.74;41.89;101773.34;5098444;28;20712;-44
2022/05/19 20:59:03;;;;;;;1.60;1.10;;;25.80;56.40;;;28.73;41.83;101782.53;5120020;28;20217;-43
2022/05/19 21:01:30;;;;;;;1.27;0.83;;;25.80;56.40;;;28.71;42.02;101768.44;5051691;28;20812;-41
2022/05/19 21:03:58;;;;;;;1.63;1.00;;;25.80;56.40;;;28.71;41.84;101779.28;4914084;29;20231;-41
2022/05/19 21:06:39;;;;;;;1.00;0.90;;;25.80;56.40;;;28.71;41.80;101784.72;5148424;27;20976;-41
2022/05/19 21:09:06;;;;;;;0.90;0.90;;;25.80;56.50;;;28.69;41.95;101792.31;5127508;28;20270;-42
2022/05/19 21:11:33;;;;;;;1.37;1.07;;;25.80;56.50;;;28.69;41.80;101789.59;5127463;28;20203;-42
2022/05/19 21:14:00;;;;;;;1.30;1.20;;;25.80;56.70;;;28.67;42.11;101794.44;5126631;28;20272;-43
2022/05/19 21:16:47;;;;;;;1.00;1.00;;;25.80;56.50;;;28.66;41.89;101801.78;5047765;28;20645;-43
2022/05/19 21:19:13;;;;;;;1.17;1.07;;;25.80;56.50;;;28.67;41.99;101806.09;5044446;28;20209;-44
2022/05/19 21:21:41;;;;;;;1.43;1.33;;;25.80;56.50;;;28.66;41.98;101806.38;5070685;28;20208;-44
2022/05/19 21:27:07;;;;;;;0.90;0.90;;;25.80;56.60;;;28.64;41.85;101805.84;4891087;29;20207;-43
2022/05/19 21:32:11;;;;;;;1.07;0.87;;;25.80;57.10;;;28.64;41.85;101805.84;5170019;27;20911;-44
2022/05/19 21:34:38;;;;;;;1.00;0.90;;;25.70;56.50;;;28.64;41.92;101808.56;5142288;27;20226;-44
2022/05/19 21:37:05;;;;;;;1.17;1.07;;;25.70;56.50;;;28.64;41.91;101809.38;5125049;28;20634;-43
2022/05/19 21:39:36;;;;;;;1.30;1.20;;;25.70;56.50;;;28.64;41.99;101812.09;5092963;28;20195;-44
2022/05/19 21:42:06;;;;;;;1.20;0.90;;;25.70;56.50;;;28.64;41.85;101811.25;5078068;28;20220;-44
2022/05/19 21:44:34;;;;;;;1.10;0.90;;;25.70;56.50;;;28.63;41.99;101810.44;5090510;28;20191;-43
2022/05/19 21:47:00;;;;;;;0.70;0.70;;;25.70;56.50;;;28.62;41.98;101825.06;5085048;28;20200;-43
2022/05/19 21:49:28;;;;;;;0.87;0.80;;;25.70;56.50;;;28.63;42.06;101825.88;5078878;28;20200;-43
2022/05/19 21:57:17;;;;;;;1.03;0.87;;;25.70;56.50;;;28.63;42.13;101832.13;5149135;27;20976;-41
2022/05/19 21:59:44;;;;;;;0.90;0.90;;;25.70;56.60;;;28.63;41.98;101842.16;5115189;28;20560;-42
2022/05/19 22:02:11;;;;;;;0.70;0.70;;;25.70;56.60;;;28.63;41.98;101847.56;5115536;28;20244;-43
2022/05/19 22:04:38;;;;;;;0.67;0.67;;;25.70;56.60;;;28.62;42.00;101857.59;5125005;28;20215;-43
2022/05/19 22:09:50;;;;;;;0.70;0.63;;;25.70;56.60;;;28.60;41.91;101862.47;5035254;28;20197;-43
2022/05/19 22:12:17;;;;;;;0.80;0.80;;;25.70;56.60;;;28.62;41.91;101867.63;5054524;28;20586;-42
2022/05/19 22:14:44;;;;;;;0.83;0.70;;;25.70;56.60;;;28.62;42.00;101873.06;5081100;28;20274;-43
2022/05/19 22:17:10;;;;;;;0.80;0.60;;;25.70;56.60;;;28.60;42.08;101865.19;5078943;28;20676;-43
2022/05/19 22:22:14;;;;;;;0.80;0.80;;;25.70;56.70;;;28.61;42.09;101874.13;5169958;27;20548;-41
2022/05/19 22:24:40;;;;;;;0.97;0.93;;;25.70;56.60;;;28.61;41.92;101887.69;5134470;27;20221;-41
2022/05/19 22:27:07;;;;;;;0.80;0.60;;;25.70;56.70;;;28.61;42.00;101890.38;5128231;27;20203;-43
2022/05/19 22:29:34;;;;;;;1.30;0.70;;;25.60;56.60;;;28.61;41.94;101895.81;5120071;28;20650;-43
2022/05/19 22:32:02;;;;;;;0.77;0.77;;;25.60;56.60;;;28.61;42.10;101890.38;5114458;28;20203;-44
2022/05/19 22:34:29;;;;;;;0.83;0.70;;;25.70;56.70;;;28.60;41.93;101892.28;5066525;28;20251;-43
2022/05/19 22:36:56;;;;;;;1.07;0.90;;;25.70;56.70;;;28.60;42.07;101891.47;5081650;28;20582;-41
2022/05/19 22:42:00;;;;;;;0.97;0.87;;;25.70;56.70;;;28.61;41.78;101890.38;5169796;27;20564;-41
2022/05/19 22:44:28;;;;;;;0.67;0.63;;;25.70;56.70;;;28.60;41.82;101892.28;5148619;27;20233;-40
2022/05/19 22:49:40;;;;;;;0.77;0.60;;;25.60;56.70;;;28.56;41.63;101896.59;5114541;28;20198;-42
2022/05/19 22:52:07;;;;;;;0.70;0.70;;;25.70;56.70;;;28.57;42.06;101894.69;5090204;28;20231;-42
2022/05/19 22:54:34;;;;;;;0.67;0.67;;;25.60;56.70;;;28.57;42.18;101890.09;5101191;28;20203;-44
2022/05/19 22:57:01;;;;;;;0.93;0.73;;;25.60;56.60;;;28.57;42.02;101887.38;5124669;27;20669;-43
2022/05/19 22:59:28;;;;;;;0.70;0.70;;;25.70;56.70;;;28.57;42.11;101891.97;5142788;27;20202;-42
2022/05/19 23:01:54;;;;;;;0.80;0.67;;;25.60;56.70;;;28.56;42.27;101901.19;5111385;27;20212;-42
2022/05/19 23:06:59;;;;;;;0.73;0.63;;;25.60;56.70;;;28.57;42.06;101894.69;5170129;27;21152;-42
2022/05/19 23:09:26;;;;;;;0.60;0.60;;;25.60;56.70;;;28.57;42.01;101897.41;5149198;27;20198;-43
2022/05/19 23:11:53;;;;;;;0.73;0.70;;;25.60;56.70;;;28.56;42.06;101904.72;5135937;27;20222;-43
2022/05/19 23:14:20;;;;;;;0.80;0.80;;;25.60;56.70;;;28.55;42.07;101908.50;5132629;27;20194;-44
2022/05/19 23:16:46;;;;;;;0.80;0.70;;;25.60;56.70;;;28.56;41.97;101906.59;5068884;28;20252;-47
2022/05/19 23:19:16;;;;;;;1.10;0.60;;;25.60;56.70;;;28.55;42.40;101916.63;5083236;28;20200;-41
2022/05/19 23:21:43;;;;;;;0.67;0.67;;;25.60;56.70;;;28.55;42.02;101922.03;5046959;28;20212;-42
2022/05/19 23:24:10;;;;;;;0.60;0.60;;;25.60;56.70;;;28.55;42.07;101916.63;5004838;28;20207;-43
2022/05/19 23:26:37;;;;;;;0.70;0.60;;;25.60;56.70;;;28.54;41.92;101920.44;4935855;28;20241;-44
2022/05/19 23:31:40;;;;;;;0.80;0.80;;;25.60;56.70;;;28.55;41.93;101921.25;5167599;27;20540;-41
2022/05/19 23:34:07;;;;;;;0.87;0.73;;;25.60;56.70;;;28.54;42.04;101922.31;5126497;28;20198;-41
2022/05/19 23:36:33;;;;;;;0.60;0.60;;;25.60;56.70;;;28.53;41.95;101918.78;5129154;27;20272;-43
2022/05/19 23:39:01;;;;;;;0.60;0.60;;;25.60;56.70;;;28.53;42.15;101928.81;5121762;28;20195;-41
2022/05/19 23:41:27;;;;;;;0.60;0.60;;;25.60;56.70;;;28.52;42.21;101921.78;5081151;28;20250;-43
2022/05/19 23:43:54;;;;;;;0.57;0.57;;;25.60;56.70;;;28.53;42.30;101917.97;5051678;28;20200;-43
2022/05/19 23:46:20;;;;;;;0.60;0.60;;;25.60;56.70;;;28.51;42.18;101914.72;5083193;28;20243;-42
2022/05/19 23:48:48;;;;;;;0.70;0.70;;;25.60;56.70;;;28.50;42.17;101929.34;5081601;28;20185;-43
2022/05/19 23:51:14;;;;;;;0.63;0.63;;;25.60;56.70;;;28.49;42.01;101923.13;5073704;28;20224;-44
2022/05/19 23:53:40;;;;;;;0.80;0.60;;;25.60;56.70;;;28.48;42.03;101921.47;5006425;28;20602;-43
2022/05/19 23:56:19;;;;;;;0.50;0.50;;;25.60;56.70;;;28.48;42.27;101926.09;5153295;27;20328;-43
2022/05/19 23:58:48;;;;;;;0.50;0.50;;;25.60;56.70;;;28.48;42.25;101923.38;5109885;28;20196;-43
